Time;durP1;ratioP1;P1;durP2;ratioP2;P2;SDS_P1;SDS_P2;PMS_P1;PMS_P2;Temp;Humidity;BMP_temperature;BMP_pressure;BME280_temperature;BME280_humidity;BME280_pressure;Samples;Min_cycle;Max_cycle;Signal;HPM_P1;HPM_P2
2023/01/25 00:02:00;;;;;;;8.13;4.40;;;;;;;;;;4986297;28;20133;-72
2023/01/25 00:04:28;;;;;;;9.07;5.00;;;;;;;;;;5013168;28;20107;-71
2023/01/25 00:06:55;;;;;;;10.68;4.47;;;;;;;;;;5013807;28;20046;-72
2023/01/25 00:09:21;;;;;;;9.45;4.43;;;;;;;;;;5014242;28;20042;-72
2023/01/25 00:11:47;;;;;;;9.70;4.38;;;;;;;;;;5010527;28;20039;-73
2023/01/25 00:14:14;;;;;;;18.38;4.93;;;;;;;;;;5008385;28;20109;-70
2023/01/25 00:16:39;;;;;;;9.98;5.10;;;;;;;;;;5008887;28;20105;-72
2023/01/25 00:19:07;;;;;;;10.32;5.85;;;;;;;;;;5012432;28;20151;-70
2023/01/25 00:21:34;;;;;;;10.90;4.78;;;;;;;;;;5012455;28;20087;-73
2023/01/25 00:24:00;;;;;;;11.88;5.43;;;;;;;;;;5002327;28;20038;-72
2023/01/25 00:26:28;;;;;;;12.15;5.72;;;;;;;;;;5007248;28;20018;-73
2023/01/25 00:28:55;;;;;;;10.80;5.85;;;;;;;;;;5011464;28;20568;-73
2023/01/25 00:31:41;;;;;;;10.05;4.80;;;;;;;;;;5027947;28;20521;-73
2023/01/25 00:34:29;;;;;;;13.57;4.88;;;;;;;;;;5012112;28;20062;-72
2023/01/25 00:37:11;;;;;;;13.82;4.97;;;;;;;;;;5027767;28;20033;-74
2023/01/25 00:39:39;;;;;;;10.70;4.88;;;;;;;;;;5013451;28;20034;-73
2023/01/25 00:42:11;;;;;;;8.13;4.13;;;;;;;;;;5010041;28;20026;-73
2023/01/25 00:44:38;;;;;;;10.77;5.13;;;;;;;;;;5012145;28;20029;-73
2023/01/25 00:47:04;;;;;;;10.60;4.75;;;;;;;;;;5010699;28;20926;-71
2023/01/25 00:49:33;;;;;;;13.43;4.70;;;;;;;;;;5012440;28;20026;-73
2023/01/25 00:52:00;;;;;;;13.00;5.43;;;;;;;;;;5012468;28;20236;-73
2023/01/25 00:54:26;;;;;;;10.75;4.43;;;;;;;;;;5010702;28;20077;-73
2023/01/25 00:56:53;;;;;;;16.00;6.20;;;;;;;;;;5010524;28;20467;-72
2023/01/25 00:59:19;;;;;;;13.30;5.05;;;;;;;;;;5012488;28;20040;-73
2023/01/25 01:01:45;;;;;;;11.63;4.38;;;;;;;;;;4978544;28;20038;-73
2023/01/25 01:04:11;;;;;;;11.13;4.72;;;;;;;;;;5011518;28;20075;-72
2023/01/25 01:06:40;;;;;;;11.25;4.50;;;;;;;;;;5010897;28;20073;-73
2023/01/25 01:09:10;;;;;;;10.27;4.25;;;;;;;;;;5011822;28;20112;-74
2023/01/25 01:11:36;;;;;;;10.15;3.78;;;;;;;;;;5012398;28;20033;-71
2023/01/25 01:14:01;;;;;;;13.65;5.45;;;;;;;;;;5011570;28;20100;-73
2023/01/25 01:16:30;;;;;;;10.93;4.75;;;;;;;;;;5012617;28;20160;-73
2023/01/25 01:18:56;;;;;;;8.07;4.28;;;;;;;;;;5007597;28;20121;-72
2023/01/25 01:21:22;;;;;;;10.80;4.03;;;;;;;;;;4991278;28;20551;-73
2023/01/25 01:23:48;;;;;;;10.32;4.65;;;;;;;;;;5006640;28;20025;-74
2023/01/25 01:26:18;;;;;;;10.65;3.70;;;;;;;;;;4994522;28;20051;-73
2023/01/25 01:28:44;;;;;;;10.23;4.75;;;;;;;;;;5011777;28;20021;-73
2023/01/25 01:31:21;;;;;;;8.80;3.63;;;;;;;;;;5012384;28;20033;-72
2023/01/25 01:34:12;;;;;;;13.75;4.05;;;;;;;;;;5011491;28;20402;-74
2023/01/25 01:36:38;;;;;;;7.13;3.03;;;;;;;;;;5010804;28;20037;-74
2023/01/25 01:39:04;;;;;;;10.25;4.60;;;;;;;;;;4994325;28;20022;-74
2023/01/25 01:41:30;;;;;;;12.95;4.68;;;;;;;;;;5012101;28;20065;-73
2023/01/25 01:43:57;;;;;;;9.43;4.25;;;;;;;;;;5010015;28;20033;-73
2023/01/25 01:46:23;;;;;;;8.60;4.32;;;;;;;;;;5010516;28;20450;-73
2023/01/25 01:49:00;;;;;;;11.05;4.13;;;;;;;;;;5006714;28;20399;-72
2023/01/25 01:51:46;;;;;;;11.57;4.78;;;;;;;;;;5010492;28;20034;-73
2023/01/25 01:54:40;;;;;;;12.00;5.32;;;;;;;;;;5010067;28;20034;-74
2023/01/25 01:57:13;;;;;;;9.82;4.82;;;;;;;;;;5009954;28;20033;-73
2023/01/25 01:59:49;;;;;;;8.95;3.65;;;;;;;;;;4974413;28;20030;-74
2023/01/25 02:02:15;;;;;;;6.97;3.55;;;;;;;;;;4974382;28;20046;-74
2023/01/25 02:04:45;;;;;;;10.20;4.20;;;;;;;;;;4990115;28;20496;-74
2023/01/25 02:07:44;;;;;;;7.80;4.35;;;;;;;;;;4974620;28;20085;-73
2023/01/25 02:10:11;;;;;;;8.77;4.00;;;;;;;;;;4988814;28;20507;-72
2023/01/25 02:12:40;;;;;;;10.20;3.05;;;;;;;;;;5001796;28;20080;-74
2023/01/25 02:15:07;;;;;;;12.85;4.55;;;;;;;;;;5011065;28;20088;-72
2023/01/25 02:17:35;;;;;;;11.38;4.30;;;;;;;;;;5011893;28;20379;-72
2023/01/25 02:20:23;;;;;;;10.55;4.22;;;;;;;;;;5011663;28;20042;-72
2023/01/25 02:23:00;;;;;;;7.28;3.90;;;;;;;;;;5013860;28;20033;-72
2023/01/25 02:25:26;;;;;;;11.10;3.63;;;;;;;;;;5015555;28;20049;-74
2023/01/25 02:28:05;;;;;;;6.38;3.88;;;;;;;;;;5014965;28;20526;-74
2023/01/25 02:30:31;;;;;;;7.65;3.63;;;;;;;;;;5014080;28;20045;-72
2023/01/25 02:32:57;;;;;;;8.27;3.92;;;;;;;;;;5010527;28;20037;-73
2023/01/25 02:35:35;;;;;;;8.93;3.53;;;;;;;;;;4995455;28;20364;-75
2023/01/25 02:38:02;;;;;;;12.65;5.40;;;;;;;;;;4995960;28;20038;-74
2023/01/25 02:40:30;;;;;;;11.68;5.32;;;;;;;;;;4978380;28;20030;-74
2023/01/25 02:42:56;;;;;;;10.75;5.20;;;;;;;;;;4989994;28;20169;-73
2023/01/25 02:45:29;;;;;;;11.15;4.90;;;;;;;;;;4997407;28;20058;-72
2023/01/25 02:47:55;;;;;;;12.05;4.72;;;;;;;;;;5015097;28;20123;-73
2023/01/25 02:50:21;;;;;;;11.43;4.65;;;;;;;;;;5015369;28;20053;-71
2023/01/25 02:52:47;;;;;;;9.02;4.65;;;;;;;;;;5013749;28;20041;-74
2023/01/25 02:55:12;;;;;;;9.25;3.95;;;;;;;;;;4997699;28;20112;-73
2023/01/25 02:57:42;;;;;;;9.45;4.53;;;;;;;;;;5024523;28;20036;-72
2023/01/25 03:00:09;;;;;;;13.98;4.47;;;;;;;;;;4981913;28;20034;-75
2023/01/25 03:02:34;;;;;;;10.80;4.22;;;;;;;;;;4983361;28;20034;-73
2023/01/25 03:05:00;;;;;;;10.13;4.60;;;;;;;;;;5014092;28;20034;-72
2023/01/25 03:07:27;;;;;;;13.10;5.53;;;;;;;;;;5016725;28;20018;-74
2023/01/25 03:09:52;;;;;;;11.65;4.18;;;;;;;;;;5002015;28;20033;-75
2023/01/25 03:12:18;;;;;;;8.98;3.78;;;;;;;;;;5019321;28;20502;-75
2023/01/25 03:14:44;;;;;;;8.10;3.63;;;;;;;;;;5018452;28;20088;-74
2023/01/25 03:17:10;;;;;;;9.77;4.10;;;;;;;;;;5000160;28;20491;-74
2023/01/25 03:19:36;;;;;;;15.38;4.90;;;;;;;;;;5015936;28;20034;-73
2023/01/25 03:22:02;;;;;;;9.80;4.35;;;;;;;;;;5016656;28;20141;-74
2023/01/25 03:24:29;;;;;;;9.35;4.30;;;;;;;;;;5015737;28;20116;-72
2023/01/25 03:27:10;;;;;;;6.65;3.50;;;;;;;;;;4993648;28;20113;-75
2023/01/25 03:29:56;;;;;;;11.30;4.60;;;;;;;;;;4984067;28;20189;-74
2023/01/25 03:32:26;;;;;;;10.80;4.15;;;;;;;;;;4994103;28;20030;-73
2023/01/25 03:34:52;;;;;;;8.10;4.30;;;;;;;;;;5006519;28;20130;-72
2023/01/25 03:37:19;;;;;;;10.88;4.47;;;;;;;;;;4993466;28;20392;-73
2023/01/25 03:39:46;;;;;;;12.55;3.97;;;;;;;;;;4976815;28;20093;-74
2023/01/25 03:42:12;;;;;;;12.05;4.45;;;;;;;;;;4999560;28;20069;-73
2023/01/25 03:44:38;;;;;;;9.77;4.70;;;;;;;;;;4999223;28;20034;-73
2023/01/25 03:47:04;;;;;;;9.73;4.80;;;;;;;;;;4976962;28;20026;-73
2023/01/25 03:49:30;;;;;;;9.57;4.13;;;;;;;;;;5005827;28;20041;-72
2023/01/25 03:51:57;;;;;;;8.63;3.63;;;;;;;;;;5013824;28;20026;-71
2023/01/25 03:54:31;;;;;;;19.52;4.80;;;;;;;;;;4995394;28;20033;-72
2023/01/25 03:56:57;;;;;;;12.65;4.20;;;;;;;;;;5013750;28;20034;-72
2023/01/25 03:59:24;;;;;;;10.82;4.18;;;;;;;;;;5002413;28;20069;-72
2023/01/25 04:01:50;;;;;;;11.68;4.28;;;;;;;;;;4976087;28;20584;-73
2023/01/25 04:04:17;;;;;;;9.75;5.13;;;;;;;;;;4976042;28;20036;-73
2023/01/25 04:06:45;;;;;;;11.52;4.40;;;;;;;;;;4976721;28;20522;-74
2023/01/25 04:09:13;;;;;;;9.82;4.15;;;;;;;;;;4991037;28;20053;-73
2023/01/25 04:11:43;;;;;;;11.00;4.38;;;;;;;;;;5009358;28;20435;-73
2023/01/25 04:14:12;;;;;;;9.77;4.43;;;;;;;;;;4976050;28;20041;-73
2023/01/25 04:16:44;;;;;;;7.72;3.95;;;;;;;;;;5006042;28;20064;-73
2023/01/25 04:19:28;;;;;;;7.85;4.22;;;;;;;;;;5013491;28;20053;-73
2023/01/25 04:21:57;;;;;;;10.68;4.00;;;;;;;;;;4995551;28;20470;-73
2023/01/25 04:24:28;;;;;;;9.20;3.60;;;;;;;;;;5012276;28;20084;-73
2023/01/25 04:26:54;;;;;;;14.68;4.63;;;;;;;;;;5012374;28;20034;-73
2023/01/25 04:29:20;;;;;;;13.68;4.43;;;;;;;;;;5012175;28;20442;-73
2023/01/25 04:31:46;;;;;;;10.93;3.88;;;;;;;;;;4996033;28;20037;-73
2023/01/25 04:34:13;;;;;;;10.13;4.43;;;;;;;;;;5013683;28;20036;-72
2023/01/25 04:36:41;;;;;;;10.35;4.93;;;;;;;;;;5012083;28;20033;-72
2023/01/25 04:39:07;;;;;;;8.77;4.15;;;;;;;;;;5012047;28;20108;-72
2023/01/25 04:41:35;;;;;;;10.15;4.43;;;;;;;;;;5011872;28;20117;-72
2023/01/25 04:44:02;;;;;;;14.73;4.32;;;;;;;;;;5011110;28;20121;-72
2023/01/25 04:46:29;;;;;;;6.85;2.97;;;;;;;;;;5012927;28;20037;-73
2023/01/25 04:48:56;;;;;;;10.40;4.18;;;;;;;;;;5011948;28;20060;-73
2023/01/25 04:51:22;;;;;;;8.20;3.63;;;;;;;;;;5013002;28;20068;-73
2023/01/25 04:53:47;;;;;;;9.32;4.13;;;;;;;;;;5011674;28;20068;-73
2023/01/25 04:56:13;;;;;;;12.00;4.55;;;;;;;;;;5011676;28;20045;-73
2023/01/25 04:58:48;;;;;;;6.28;3.15;;;;;;;;;;5011610;28;20030;-73
2023/01/25 05:01:14;;;;;;;8.55;3.75;;;;;;;;;;5011017;28;20053;-72
2023/01/25 05:03:39;;;;;;;10.23;3.95;;;;;;;;;;4994738;28;20013;-73
2023/01/25 05:06:12;;;;;;;19.10;4.73;;;;;;;;;;5000680;28;20026;-73
2023/01/25 05:08:38;;;;;;;8.60;4.13;;;;;;;;;;5011392;28;20061;-74
2023/01/25 05:11:04;;;;;;;10.85;4.50;;;;;;;;;;5012692;28;20049;-73
2023/01/25 05:13:50;;;;;;;11.15;4.13;;;;;;;;;;4996173;28;20107;-73
2023/01/25 05:16:26;;;;;;;9.45;4.40;;;;;;;;;;5011873;28;20026;-73
2023/01/25 05:18:54;;;;;;;15.70;4.65;;;;;;;;;;5011818;28;20038;-73
2023/01/25 05:24:10;;;;;;;11.50;4.18;;;;;;;;;;5008285;28;20102;-73
2023/01/25 05:29:21;;;;;;;16.50;4.60;;;;;;;;;;4994878;28;20029;-73
2023/01/25 05:32:09;;;;;;;16.23;6.88;;;;;;;;;;4986553;28;20185;-72
2023/01/25 05:34:36;;;;;;;13.90;4.40;;;;;;;;;;4994193;28;20068;-73
2023/01/25 05:37:03;;;;;;;10.13;4.60;;;;;;;;;;5007601;28;20026;-73
2023/01/25 05:39:29;;;;;;;11.13;3.97;;;;;;;;;;5007161;28;20026;-72
2023/01/25 05:41:55;;;;;;;13.82;4.53;;;;;;;;;;4992227;28;20022;-71
2023/01/25 05:44:22;;;;;;;10.13;3.75;;;;;;;;;;5011753;28;20555;-72
2023/01/25 05:46:50;;;;;;;12.70;4.30;;;;;;;;;;4994851;28;20501;-73
2023/01/25 05:49:16;;;;;;;10.52;4.30;;;;;;;;;;5002402;28;20026;-72
2023/01/25 05:51:43;;;;;;;10.68;4.10;;;;;;;;;;5007437;28;20018;-73
2023/01/25 05:54:13;;;;;;;13.95;5.07;;;;;;;;;;5010369;28;20037;-71
2023/01/25 05:56:42;;;;;;;9.77;3.93;;;;;;;;;;4993697;28;20029;-70
2023/01/25 05:59:10;;;;;;;13.63;4.30;;;;;;;;;;5002127;28;20431;-73
2023/01/25 06:01:36;;;;;;;7.07;2.72;;;;;;;;;;5007208;28;20027;-75
2023/01/25 06:04:03;;;;;;;11.23;4.63;;;;;;;;;;5008519;28;20026;-72
2023/01/25 06:06:29;;;;;;;6.97;2.80;;;;;;;;;;4980322;28;20081;-73
2023/01/25 06:08:55;;;;;;;9.07;3.67;;;;;;;;;;4984848;28;20097;-72
2023/01/25 06:11:22;;;;;;;9.40;3.50;;;;;;;;;;5009638;28;20100;-73
2023/01/25 06:13:50;;;;;;;4.50;3.08;;;;;;;;;;5012588;28;20025;-72
2023/01/25 06:16:17;;;;;;;9.90;3.42;;;;;;;;;;5009005;28;20592;-74
2023/01/25 06:18:43;;;;;;;5.90;3.28;;;;;;;;;;5010816;28;20419;-72
2023/01/25 06:21:35;;;;;;;6.30;3.15;;;;;;;;;;4988887;28;20087;-76
2023/01/25 06:24:05;;;;;;;8.50;3.90;;;;;;;;;;5008785;28;20096;-72
2023/01/25 06:26:31;;;;;;;7.50;3.67;;;;;;;;;;5011910;28;20113;-72
2023/01/25 06:28:57;;;;;;;7.05;3.28;;;;;;;;;;4991596;28;20426;-73
2023/01/25 06:31:22;;;;;;;11.90;3.30;;;;;;;;;;5008739;28;20391;-72
2023/01/25 06:33:50;;;;;;;8.73;3.72;;;;;;;;;;5016143;28;20313;-74
2023/01/25 06:36:20;;;;;;;9.65;4.93;;;;;;;;;;5011002;28;20104;-73
2023/01/25 06:38:50;;;;;;;10.60;3.35;;;;;;;;;;5009418;28;20038;-76
2023/01/25 06:41:16;;;;;;;12.52;4.43;;;;;;;;;;5009042;28;20029;-73
2023/01/25 06:43:43;;;;;;;12.88;4.70;;;;;;;;;;5010399;28;20033;-72
2023/01/25 06:46:10;;;;;;;8.73;3.80;;;;;;;;;;5011107;28;20034;-74
2023/01/25 06:48:37;;;;;;;10.75;4.20;;;;;;;;;;5011119;28;20025;-74
2023/01/25 06:51:05;;;;;;;11.52;4.60;;;;;;;;;;5006863;28;20034;-73
2023/01/25 06:53:33;;;;;;;14.45;4.13;;;;;;;;;;5005284;28;20034;-75
2023/01/25 06:56:01;;;;;;;9.80;4.15;;;;;;;;;;5007169;28;20041;-76
2023/01/25 06:58:28;;;;;;;9.88;3.30;;;;;;;;;;5005306;28;20029;-74
2023/01/25 07:01:02;;;;;;;9.40;4.13;;;;;;;;;;5010121;28;20042;-74
2023/01/25 07:03:28;;;;;;;13.00;5.75;;;;;;;;;;4993967;28;20034;-74
2023/01/25 07:06:02;;;;;;;11.95;4.20;;;;;;;;;;5009028;28;20029;-73
2023/01/25 07:08:28;;;;;;;11.52;4.30;;;;;;;;;;5012973;28;20061;-75
2023/01/25 07:11:02;;;;;;;7.75;3.65;;;;;;;;;;5013729;28;20111;-74
2023/01/25 07:13:29;;;;;;;11.68;4.13;;;;;;;;;;5013929;28;20058;-74
2023/01/25 07:16:01;;;;;;;8.27;4.53;;;;;;;;;;4991709;28;20032;-73
2023/01/25 07:18:29;;;;;;;9.88;4.75;;;;;;;;;;5015486;28;20033;-74
2023/01/25 07:21:04;;;;;;;11.32;4.90;;;;;;;;;;5009515;28;20029;-73
2023/01/25 07:23:33;;;;;;;13.48;4.85;;;;;;;;;;4991619;28;20080;-74
2023/01/25 07:26:04;;;;;;;13.63;5.22;;;;;;;;;;5009119;28;20030;-74
2023/01/25 07:28:31;;;;;;;10.77;5.13;;;;;;;;;;5011665;28;20064;-74
2023/01/25 07:31:04;;;;;;;12.60;4.72;;;;;;;;;;4993439;28;20030;-73
2023/01/25 07:33:31;;;;;;;13.90;5.10;;;;;;;;;;5011240;28;20033;-73
2023/01/25 07:36:06;;;;;;;11.00;4.35;;;;;;;;;;5010208;28;20046;-74
2023/01/25 07:38:33;;;;;;;12.02;4.35;;;;;;;;;;5007022;28;20057;-74
2023/01/25 07:41:00;;;;;;;8.13;3.83;;;;;;;;;;5012828;28;20029;-74
2023/01/25 07:43:26;;;;;;;7.93;3.28;;;;;;;;;;5005894;28;20030;-74
2023/01/25 07:45:58;;;;;;;7.03;3.50;;;;;;;;;;5009585;28;20076;-74
2023/01/25 07:48:24;;;;;;;10.02;4.03;;;;;;;;;;5010630;28;20049;-74
2023/01/25 07:51:10;;;;;;;5.40;3.25;;;;;;;;;;4995010;28;20079;-76
2023/01/25 07:53:40;;;;;;;11.50;4.47;;;;;;;;;;5007567;28;20336;-73
2023/01/25 07:56:07;;;;;;;10.07;4.68;;;;;;;;;;5015178;28;20538;-75
2023/01/25 07:58:33;;;;;;;9.23;4.22;;;;;;;;;;5009814;28;20045;-72
2023/01/25 08:01:11;;;;;;;11.85;4.43;;;;;;;;;;5014616;28;20034;-72
2023/01/25 08:03:38;;;;;;;10.90;3.67;;;;;;;;;;5004912;28;20049;-72
2023/01/25 08:06:04;;;;;;;9.85;3.80;;;;;;;;;;4990358;28;20030;-73
2023/01/25 08:08:33;;;;;;;11.27;3.50;;;;;;;;;;5008911;28;20038;-73
2023/01/25 08:11:12;;;;;;;8.52;3.40;;;;;;;;;;5008308;28;20112;-74
2023/01/25 08:13:38;;;;;;;9.63;3.95;;;;;;;;;;5011998;28;20034;-72
2023/01/25 08:16:04;;;;;;;11.48;3.80;;;;;;;;;;5010529;28;20084;-73
2023/01/25 08:18:30;;;;;;;10.05;3.47;;;;;;;;;;5009172;28;20532;-72
2023/01/25 08:20:59;;;;;;;10.07;4.45;;;;;;;;;;5010060;28;20029;-73
2023/01/25 08:23:27;;;;;;;11.20;3.45;;;;;;;;;;5007279;28;20762;-73
2023/01/25 08:25:52;;;;;;;12.90;4.03;;;;;;;;;;5007246;28;20416;-72
2023/01/25 08:28:18;;;;;;;6.70;3.67;;;;;;;;;;5005285;28;20030;-73
2023/01/25 08:30:44;;;;;;;11.02;4.63;;;;;;;;;;5009449;28;20144;-73
2023/01/25 08:33:09;;;;;;;5.45;3.28;;;;;;;;;;5011181;28;20379;-71
2023/01/25 08:35:36;;;;;;;6.38;3.65;;;;;;;;;;5011694;28;20072;-73
2023/01/25 08:38:02;;;;;;;7.30;4.20;;;;;;;;;;4994830;28;20053;-72
2023/01/25 08:40:29;;;;;;;8.10;3.38;;;;;;;;;;5013141;28;20448;-73
2023/01/25 08:42:54;;;;;;;7.68;4.22;;;;;;;;;;5011582;28;20053;-71
2023/01/25 08:45:21;;;;;;;9.15;4.10;;;;;;;;;;5000799;28;20400;-73
2023/01/25 08:47:47;;;;;;;6.50;3.47;;;;;;;;;;5011081;28;20065;-71
2023/01/25 08:50:13;;;;;;;6.47;2.88;;;;;;;;;;5012114;28;20037;-72
2023/01/25 08:52:39;;;;;;;7.53;3.63;;;;;;;;;;5011504;28;20030;-73
2023/01/25 08:55:05;;;;;;;11.50;4.20;;;;;;;;;;5011820;28;20072;-72
2023/01/25 08:57:31;;;;;;;7.43;3.63;;;;;;;;;;4994948;28;20034;-73
2023/01/25 08:59:56;;;;;;;6.63;3.47;;;;;;;;;;5011587;28;20026;-73
2023/01/25 09:02:23;;;;;;;7.05;3.40;;;;;;;;;;5010816;28;20040;-73
2023/01/25 09:04:49;;;;;;;9.50;4.25;;;;;;;;;;5001957;28;20034;-72
2023/01/25 09:07:15;;;;;;;6.72;2.80;;;;;;;;;;5009399;28;20072;-72
2023/01/25 09:09:40;;;;;;;8.82;4.47;;;;;;;;;;5008079;28;20041;-72
2023/01/25 09:12:08;;;;;;;8.50;3.70;;;;;;;;;;5010264;28;20026;-72
2023/01/25 09:14:34;;;;;;;9.85;3.95;;;;;;;;;;5013927;28;20029;-74
2023/01/25 09:16:59;;;;;;;7.13;3.25;;;;;;;;;;4993225;28;20045;-73
2023/01/25 09:19:25;;;;;;;8.45;3.63;;;;;;;;;;5011925;28;20076;-73
2023/01/25 09:21:51;;;;;;;7.65;2.88;;;;;;;;;;5011859;28;20038;-72
2023/01/25 09:24:16;;;;;;;7.55;4.10;;;;;;;;;;5010293;28;20056;-74
2023/01/25 09:26:42;;;;;;;8.40;4.15;;;;;;;;;;5010519;28;20037;-72
2023/01/25 09:29:10;;;;;;;8.63;3.50;;;;;;;;;;5010608;28;20105;-73
2023/01/25 09:31:42;;;;;;;9.57;4.32;;;;;;;;;;5010708;28;20038;-73
2023/01/25 09:34:10;;;;;;;8.32;3.67;;;;;;;;;;5010569;28;20045;-73
2023/01/25 09:36:37;;;;;;;6.90;3.42;;;;;;;;;;5011434;28;20083;-74
2023/01/25 09:39:03;;;;;;;10.10;4.15;;;;;;;;;;5010272;28;20034;-73
2023/01/25 09:41:47;;;;;;;6.63;3.88;;;;;;;;;;5003308;28;20340;-73
2023/01/25 09:44:29;;;;;;;8.70;3.47;;;;;;;;;;5015096;28;20040;-72
2023/01/25 09:47:09;;;;;;;7.85;3.40;;;;;;;;;;5029843;28;20043;-70
2023/01/25 09:49:52;;;;;;;7.65;3.47;;;;;;;;;;5014862;28;20068;-73
2023/01/25 09:52:49;;;;;;;5.97;3.40;;;;;;;;;;5011062;28;20502;-72
2023/01/25 09:55:21;;;;;;;9.48;2.35;;;;;;;;;;5008247;28;20479;-72
2023/01/25 09:57:49;;;;;;;7.18;3.40;;;;;;;;;;5009894;28;20501;-72
2023/01/25 10:00:22;;;;;;;6.55;3.10;;;;;;;;;;5010725;28;20578;-72
2023/01/25 10:03:01;;;;;;;6.97;3.07;;;;;;;;;;4994747;28;20115;-72
2023/01/25 10:05:31;;;;;;;9.00;3.45;;;;;;;;;;5010367;28;20885;-72
2023/01/25 10:08:13;;;;;;;4.85;2.70;;;;;;;;;;5004340;28;20042;-74
2023/01/25 10:10:41;;;;;;;9.65;4.00;;;;;;;;;;5012728;28;20037;-71
2023/01/25 10:13:13;;;;;;;7.68;3.40;;;;;;;;;;5026825;28;20098;-72
2023/01/25 10:15:52;;;;;;;6.47;3.38;;;;;;;;;;5017463;28;20483;-73
2023/01/25 10:18:26;;;;;;;7.80;3.03;;;;;;;;;;5002787;28;20045;-72
2023/01/25 10:20:56;;;;;;;9.20;3.40;;;;;;;;;;5008880;28;20037;-71
2023/01/25 10:23:44;;;;;;;9.20;3.00;;;;;;;;;;5004611;28;20040;-73
2023/01/25 10:26:17;;;;;;;6.63;3.10;;;;;;;;;;5010861;28;20394;-74
2023/01/25 10:29:06;;;;;;;5.53;3.08;;;;;;;;;;5011590;28;20148;-73
2023/01/25 10:31:37;;;;;;;7.22;2.70;;;;;;;;;;5010015;28;20212;-72
2023/01/25 10:34:15;;;;;;;6.82;3.45;;;;;;;;;;5011022;28;20038;-73
2023/01/25 10:36:42;;;;;;;5.55;3.00;;;;;;;;;;5009738;28;20391;-72
2023/01/25 10:39:10;;;;;;;11.13;3.63;;;;;;;;;;5011018;28;20026;-74
2023/01/25 10:41:40;;;;;;;5.45;3.30;;;;;;;;;;5010744;28;20041;-74
2023/01/25 10:44:23;;;;;;;6.55;3.15;;;;;;;;;;5014684;28;20106;-73
2023/01/25 10:47:28;;;;;;;10.68;3.92;;;;;;;;;;5005901;28;20078;-73
2023/01/25 10:49:56;;;;;;;7.20;3.45;;;;;;;;;;5012863;28;20034;-71
2023/01/25 10:52:28;;;;;;;9.65;3.53;;;;;;;;;;5014821;28;20050;-74
2023/01/25 10:55:21;;;;;;;9.90;3.60;;;;;;;;;;4997092;28;20116;-73
2023/01/25 10:57:53;;;;;;;10.68;4.85;;;;;;;;;;5015172;28;20049;-75
2023/01/25 11:00:26;;;;;;;8.35;3.67;;;;;;;;;;5014636;28;20034;-72
2023/01/25 11:02:53;;;;;;;7.93;3.08;;;;;;;;;;5014382;28;20042;-76
2023/01/25 11:05:24;;;;;;;4.53;2.75;;;;;;;;;;4996445;28;20037;-75
2023/01/25 11:07:52;;;;;;;8.10;3.65;;;;;;;;;;5014163;28;20041;-74
2023/01/25 11:10:29;;;;;;;7.68;3.75;;;;;;;;;;5014321;28;20153;-74
2023/01/25 11:13:13;;;;;;;8.50;3.92;;;;;;;;;;5014126;28;20048;-73
2023/01/25 11:15:58;;;;;;;6.22;3.20;;;;;;;;;;5012732;28;20026;-73
2023/01/25 11:18:32;;;;;;;5.05;2.72;;;;;;;;;;5013893;28;20045;-74
2023/01/25 11:21:17;;;;;;;7.10;3.63;;;;;;;;;;5014221;28;20478;-74
2023/01/25 11:24:04;;;;;;;8.15;4.22;;;;;;;;;;5013397;28;20046;-73
2023/01/25 11:26:32;;;;;;;6.57;3.50;;;;;;;;;;5013646;28;20042;-74
2023/01/25 11:29:19;;;;;;;8.95;3.78;;;;;;;;;;5013950;28;20498;-73
2023/01/25 11:31:56;;;;;;;9.73;3.58;;;;;;;;;;5013080;28;20049;-73
2023/01/25 11:34:28;;;;;;;6.07;3.45;;;;;;;;;;5014214;28;20467;-73
2023/01/25 11:37:16;;;;;;;10.10;4.05;;;;;;;;;;4996668;28;20065;-73
2023/01/25 11:40:11;;;;;;;7.25;3.67;;;;;;;;;;5011770;28;20125;-75
2023/01/25 11:42:58;;;;;;;7.20;3.40;;;;;;;;;;5005842;28;20058;-74
2023/01/25 11:45:36;;;;;;;9.38;3.40;;;;;;;;;;5004503;28;20541;-74
2023/01/25 11:48:31;;;;;;;6.95;2.90;;;;;;;;;;5007375;28;20470;-76
2023/01/25 11:51:28;;;;;;;6.15;2.45;;;;;;;;;;5012842;28;20498;-76
2023/01/25 11:54:24;;;;;;;6.75;3.72;;;;;;;;;;4990703;28;20042;-73
2023/01/25 11:57:04;;;;;;;8.98;4.00;;;;;;;;;;4993408;28;20451;-74
2023/01/25 11:59:53;;;;;;;11.00;4.85;;;;;;;;;;5008536;28;20125;-73
2023/01/25 12:02:34;;;;;;;10.73;3.80;;;;;;;;;;5005964;28;20125;-73
2023/01/25 12:05:21;;;;;;;9.63;3.10;;;;;;;;;;5012682;28;20038;-73
2023/01/25 12:08:13;;;;;;;8.27;3.47;;;;;;;;;;4994968;28;20132;-73
2023/01/25 12:11:03;;;;;;;10.25;5.38;;;;;;;;;;5007623;28;20042;-72
2023/01/25 12:13:39;;;;;;;8.98;4.35;;;;;;;;;;5013363;28;20121;-72
2023/01/25 12:16:34;;;;;;;7.35;3.30;;;;;;;;;;5012552;28;20170;-75
2023/01/25 12:19:18;;;;;;;11.60;4.07;;;;;;;;;;5004936;28;20066;-73
2023/01/25 12:22:26;;;;;;;7.80;3.75;;;;;;;;;;5013673;28;20048;-74
2023/01/25 12:25:25;;;;;;;9.13;4.03;;;;;;;;;;5014701;28;20034;-74
2023/01/25 12:28:15;;;;;;;10.02;3.80;;;;;;;;;;5014693;28;20472;-76
2023/01/25 12:31:09;;;;;;;10.25;4.75;;;;;;;;;;5015080;28;20065;-75
2023/01/25 12:33:41;;;;;;;7.53;3.50;;;;;;;;;;5014113;28;20045;-77
2023/01/25 12:36:24;;;;;;;8.50;3.28;;;;;;;;;;5014307;28;20065;-74
2023/01/25 12:39:04;;;;;;;8.55;4.22;;;;;;;;;;5013027;28;20041;-73
2023/01/25 12:41:42;;;;;;;9.43;4.97;;;;;;;;;;5012979;28;20037;-74
2023/01/25 12:44:13;;;;;;;11.13;4.80;;;;;;;;;;5012738;28;20562;-74
2023/01/25 12:47:00;;;;;;;7.82;4.22;;;;;;;;;;5012569;28;20430;-75
2023/01/25 12:49:40;;;;;;;7.07;3.60;;;;;;;;;;5012342;28;20062;-73
2023/01/25 12:52:20;;;;;;;7.32;3.55;;;;;;;;;;5012759;28;20061;-74
2023/01/25 12:54:47;;;;;;;9.48;4.57;;;;;;;;;;5012688;28;20470;-74
2023/01/25 12:57:16;;;;;;;10.95;5.90;;;;;;;;;;5012748;28;20057;-73
2023/01/25 12:59:54;;;;;;;8.18;4.30;;;;;;;;;;5011945;28;20042;-74
2023/01/25 13:02:43;;;;;;;12.02;5.18;;;;;;;;;;5011763;28;20041;-75
2023/01/25 13:05:21;;;;;;;9.30;4.65;;;;;;;;;;5011002;28;20081;-73
2023/01/25 13:07:59;;;;;;;6.55;4.32;;;;;;;;;;5012785;28;20037;-75
2023/01/25 13:10:48;;;;;;;9.00;4.35;;;;;;;;;;5012661;28;20487;-73
2023/01/25 13:13:27;;;;;;;10.65;5.70;;;;;;;;;;5013440;28;20034;-74
2023/01/25 13:15:54;;;;;;;11.68;5.90;;;;;;;;;;5011322;28;20064;-74
2023/01/25 13:18:31;;;;;;;12.45;6.50;;;;;;;;;;5012339;28;20018;-73
2023/01/25 13:20:59;;;;;;;8.52;3.97;;;;;;;;;;5011989;28;20052;-72
2023/01/25 13:23:49;;;;;;;13.73;6.30;;;;;;;;;;5012028;28;20541;-72
2023/01/25 13:26:21;;;;;;;11.85;4.43;;;;;;;;;;5011886;28;20564;-73
2023/01/25 13:28:48;;;;;;;11.02;5.05;;;;;;;;;;5011870;28;20058;-72
2023/01/25 13:31:39;;;;;;;11.45;4.35;;;;;;;;;;5012092;28;20064;-74
2023/01/25 13:34:33;;;;;;;6.75;3.42;;;;;;;;;;5011828;28;20029;-74
2023/01/25 13:36:58;;;;;;;8.63;4.70;;;;;;;;;;5011950;28;20037;-74
2023/01/25 13:39:24;;;;;;;12.90;5.63;;;;;;;;;;5011704;28;20030;-73
2023/01/25 13:42:02;;;;;;;9.45;4.05;;;;;;;;;;5012589;28;20033;-76
2023/01/25 13:44:32;;;;;;;10.43;4.22;;;;;;;;;;5010601;28;20380;-73
2023/01/25 13:47:02;;;;;;;9.00;4.15;;;;;;;;;;5011903;28;20038;-75
2023/01/25 13:49:39;;;;;;;10.98;4.20;;;;;;;;;;4993816;28;20018;-74
2023/01/25 13:52:06;;;;;;;10.90;4.65;;;;;;;;;;5010404;28;20092;-74
2023/01/25 13:54:32;;;;;;;8.82;4.30;;;;;;;;;;5011570;28;20030;-74
2023/01/25 13:57:13;;;;;;;7.10;4.03;;;;;;;;;;4994629;28;20096;-75
2023/01/25 13:59:39;;;;;;;10.63;4.40;;;;;;;;;;5011808;28;20034;-73
2023/01/25 14:02:20;;;;;;;14.10;4.75;;;;;;;;;;5011593;28;20105;-74
2023/01/25 14:04:48;;;;;;;11.80;4.75;;;;;;;;;;5009997;28;20452;-75
2023/01/25 14:07:17;;;;;;;11.02;5.75;;;;;;;;;;4994032;28;20057;-74
2023/01/25 14:09:43;;;;;;;11.45;4.95;;;;;;;;;;5012037;28;20042;-74
2023/01/25 14:12:11;;;;;;;9.95;6.35;;;;;;;;;;5011369;28;20022;-75
2023/01/25 14:14:37;;;;;;;12.82;5.88;;;;;;;;;;5011561;28;20046;-74
2023/01/25 14:17:13;;;;;;;13.40;7.05;;;;;;;;;;5011538;28;20049;-73
2023/01/25 14:19:43;;;;;;;13.38;6.90;;;;;;;;;;5015632;28;20082;-75
2023/01/25 14:22:16;;;;;;;12.70;5.38;;;;;;;;;;5015519;28;20037;-74
2023/01/25 14:24:42;;;;;;;11.57;5.57;;;;;;;;;;4997910;28;20068;-74
2023/01/25 14:27:12;;;;;;;15.95;7.70;;;;;;;;;;5015615;28;20034;-75
2023/01/25 14:29:39;;;;;;;15.52;7.32;;;;;;;;;;5015977;28;20044;-75
2023/01/25 14:32:05;;;;;;;10.77;6.18;;;;;;;;;;5014967;28;20033;-73
2023/01/25 14:34:31;;;;;;;13.07;6.65;;;;;;;;;;5015576;28;20048;-75
2023/01/25 14:37:15;;;;;;;15.77;8.10;;;;;;;;;;5015913;28;20087;-73
2023/01/25 14:39:41;;;;;;;17.02;8.60;;;;;;;;;;5017044;28;20042;-74
2023/01/25 14:42:07;;;;;;;17.67;9.35;;;;;;;;;;5015023;28;20026;-74
2023/01/25 14:44:35;;;;;;;18.88;8.32;;;;;;;;;;5015210;28;20042;-75
2023/01/25 14:47:32;;;;;;;15.02;7.53;;;;;;;;;;5015580;28;20029;-74
2023/01/25 14:50:28;;;;;;;16.90;8.85;;;;;;;;;;5015644;28;20030;-75
2023/01/25 14:52:54;;;;;;;16.90;8.43;;;;;;;;;;5015183;28;20065;-75
2023/01/25 14:55:20;;;;;;;19.83;9.77;;;;;;;;;;4997487;28;20026;-75
2023/01/25 14:57:48;;;;;;;20.60;12.02;;;;;;;;;;5013538;28;20399;-74
2023/01/25 15:00:23;;;;;;;15.70;9.05;;;;;;;;;;5014508;28;20381;-74
2023/01/25 15:02:55;;;;;;;16.60;9.05;;;;;;;;;;5014985;28;20057;-75
2023/01/25 15:05:28;;;;;;;16.20;8.85;;;;;;;;;;5014403;28;20141;-73
2023/01/25 15:07:54;;;;;;;;;;;;;;;;;;5014996;28;20456;-74
2023/01/25 15:10:29;;;;;;;14.88;7.82;;;;;;;;;;5014663;28;19915;-73